createdAt,value
2018-11-03T03:24:52.154Z,33.54
2018-11-03T03:25:30.334Z,33.54
2018-11-03T03:26:09.268Z,33.53
2018-11-03T03:26:47.316Z,33.53
2018-11-03T03:27:25.313Z,33.58
2018-11-03T03:28:03.330Z,33.60
2018-11-03T03:28:41.304Z,33.61
2018-11-03T03:29:19.440Z,33.61
2018-11-03T03:29:57.576Z,33.63
2018-11-03T03:30:35.633Z,33.62
2018-11-03T03:31:13.608Z,33.66
2018-11-03T03:31:51.502Z,33.69
2018-11-03T03:32:29.535Z,33.75
2018-11-03T03:33:07.349Z,33.79
2018-11-03T03:33:45.252Z,33.80
2018-11-03T03:34:23.345Z,33.80
2018-11-03T03:35:01.437Z,33.83
2018-11-03T03:35:39.517Z,33.88
2018-11-03T03:36:17.586Z,33.94
2018-11-03T03:36:55.556Z,33.96
2018-11-03T03:37:33.583Z,34.00
2018-11-03T03:38:11.589Z,34.05
2018-11-03T03:38:49.701Z,34.06
2018-11-03T03:39:27.498Z,34.04
2018-11-03T03:40:05.457Z,34.06
2018-11-03T03:40:43.417Z,34.08
2018-11-03T03:41:21.614Z,34.03
2018-11-03T03:41:59.561Z,34.10
2018-11-03T03:42:37.478Z,34.12
2018-11-03T03:43:15.360Z,34.17
2018-11-03T03:43:53.332Z,34.25
2018-11-03T03:44:31.180Z,34.27
2018-11-03T03:45:10.290Z,34.30
2018-11-03T03:45:48.317Z,34.30
2018-11-03T03:46:26.261Z,34.29
2018-11-03T03:47:05.429Z,34.31
2018-11-03T03:47:44.217Z,34.29
2018-11-03T03:48:22.314Z,34.34
2018-11-03T03:49:00.457Z,34.36
2018-11-03T03:49:38.303Z,34.41
2018-11-03T03:50:16.367Z,34.43
2018-11-03T03:50:54.243Z,34.46
2018-11-03T03:51:33.264Z,34.48
2018-11-03T03:52:12.400Z,34.44
2018-11-03T03:52:50.289Z,34.46
2018-11-03T03:53:28.435Z,34.52
2018-11-03T03:54:06.620Z,34.55
2018-11-03T03:54:44.561Z,34.63
2018-11-03T03:55:23.774Z,34.67
2018-11-03T03:56:01.671Z,34.68
2018-11-03T03:56:39.720Z,34.76
2018-11-03T03:57:17.648Z,34.77
2018-11-03T03:57:55.630Z,34.78
2018-11-03T03:58:33.477Z,34.81
2018-11-03T03:59:11.454Z,34.85
2018-11-03T03:59:49.569Z,34.82
2018-11-03T04:00:27.442Z,34.82
2018-11-03T04:01:05.489Z,34.82
2018-11-03T04:01:43.535Z,34.82
2018-11-03T04:02:21.502Z,34.81
2018-11-03T04:02:59.542Z,34.84
2018-11-03T04:03:37.441Z,34.80
2018-11-03T04:04:15.547Z,34.77
2018-11-03T04:04:54.076Z,34.68
2018-11-03T04:05:32.129Z,34.69
2018-11-03T04:06:10.144Z,34.63
2018-11-03T04:06:48.129Z,34.61
2018-11-03T04:07:26.100Z,34.59
2018-11-03T04:08:03.956Z,34.56
2018-11-03T04:08:41.870Z,34.54
2018-11-03T04:09:19.892Z,34.55
2018-11-03T04:09:57.861Z,34.56
2018-11-03T04:10:35.800Z,34.57
2018-11-03T04:11:13.677Z,34.54
2018-11-03T04:11:51.658Z,34.48
2018-11-03T04:12:30.731Z,34.46
2018-11-03T04:13:09.019Z,34.41
2018-11-03T04:13:47.048Z,34.34
2018-11-03T04:14:25.166Z,34.30
2018-11-03T04:15:03.016Z,34.29
2018-11-03T04:15:40.973Z,34.25
2018-11-03T04:16:19.049Z,34.19
2018-11-03T04:16:57.035Z,34.15
2018-11-03T04:17:35.095Z,34.10
2018-11-03T04:18:12.976Z,34.01
2018-11-03T04:18:50.790Z,34.00
2018-11-03T04:19:28.694Z,33.97
2018-11-03T04:20:06.731Z,33.95
2018-11-03T04:20:44.668Z,33.92
2018-11-03T04:21:27.232Z,33.91
2018-11-03T04:22:05.214Z,33.85
2018-11-03T04:22:43.683Z,33.84
2018-11-03T04:23:21.711Z,33.77
2018-11-03T04:24:00.080Z,33.76
2018-11-03T04:24:38.623Z,33.73
2018-11-03T04:25:16.546Z,33.70
2018-11-03T04:25:54.408Z,33.73
2018-11-03T04:26:32.973Z,33.68
2018-11-03T04:27:11.016Z,33.67
2018-11-03T04:27:49.845Z,33.63
2018-11-03T04:28:28.363Z,33.61
2018-11-03T04:29:06.217Z,33.58
2018-11-03T04:29:44.331Z,33.54
2018-11-03T04:30:22.414Z,33.53
2018-11-03T04:31:00.354Z,33.48
2018-11-03T04:31:38.327Z,33.45
2018-11-03T04:32:16.365Z,33.42
2018-11-03T04:32:54.518Z,33.42
2018-11-03T04:33:32.435Z,33.40
2018-11-03T04:34:11.475Z,33.41
2018-11-03T04:34:50.208Z,33.47
2018-11-03T04:35:29.463Z,33.53
2018-11-03T04:36:07.503Z,33.63
2018-11-03T04:36:45.663Z,33.66
2018-11-03T04:37:23.816Z,33.69
2018-11-03T04:38:01.985Z,33.68
2018-11-03T04:38:39.995Z,33.68
2018-11-03T04:39:18.908Z,33.69
2018-11-03T04:39:56.856Z,33.74
2018-11-03T04:40:35.317Z,33.72
2018-11-03T04:41:13.303Z,33.77
2018-11-03T04:41:51.340Z,33.85
2018-11-03T04:42:29.676Z,33.88
2018-11-03T04:43:07.683Z,33.84
2018-11-03T04:43:45.687Z,33.82
2018-11-03T04:44:23.623Z,33.81
2018-11-03T04:45:01.599Z,33.77
2018-11-03T04:45:39.924Z,33.75
2018-11-03T04:46:17.768Z,33.74
2018-11-03T04:46:56.055Z,33.74
2018-11-03T04:47:33.995Z,33.71
2018-11-03T04:48:12.280Z,33.66
2018-11-03T04:48:50.778Z,33.64
2018-11-03T04:49:28.797Z,33.60
2018-11-03T04:50:06.921Z,33.60
2018-11-03T04:50:44.820Z,33.56
2018-11-03T04:51:23.079Z,33.53
2018-11-03T04:52:01.097Z,33.53
2018-11-03T04:52:39.356Z,33.48
2018-11-03T04:53:18.014Z,33.46
2018-11-03T04:53:58.376Z,33.46
2018-11-03T04:54:36.433Z,33.37
2018-11-03T04:55:14.494Z,33.33
2018-11-03T04:55:52.629Z,33.29
2018-11-03T04:56:30.834Z,33.27
2018-11-03T04:57:09.128Z,33.20
2018-11-03T04:57:47.400Z,33.20
2018-11-03T04:58:25.508Z,33.19
2018-11-03T04:59:03.589Z,33.18
2018-11-03T04:59:41.543Z,33.16
2018-11-03T05:00:19.519Z,33.15
2018-11-03T05:00:58.766Z,33.15
2018-11-03T05:01:36.728Z,33.14
2018-11-03T05:02:15.195Z,33.12
2018-11-03T05:02:53.232Z,33.12
2018-11-03T05:03:32.316Z,33.13
2018-11-03T05:04:10.572Z,33.13
2018-11-03T05:04:48.691Z,33.12
2018-11-03T05:05:26.745Z,33.18
2018-11-03T05:06:04.913Z,33.20
2018-11-03T05:06:43.141Z,33.23
2018-11-03T05:07:21.258Z,33.23
2018-11-03T05:07:59.417Z,33.24
2018-11-03T05:08:37.276Z,33.24
2018-11-03T05:09:15.184Z,33.22
2018-11-03T05:09:53.179Z,33.19
2018-11-03T05:10:31.699Z,33.16
2018-11-03T05:11:10.030Z,33.11
2018-11-03T05:11:48.261Z,33.11
2018-11-03T05:12:26.577Z,33.09
2018-11-03T05:13:04.822Z,33.10
2018-11-03T05:13:42.791Z,33.08
2018-11-03T05:14:20.886Z,33.09
2018-11-03T05:14:58.908Z,33.07
2018-11-03T05:15:36.876Z,33.04
2018-11-03T05:16:14.950Z,32.99
2018-11-03T05:16:53.142Z,32.97
2018-11-03T05:17:31.088Z,32.92
2018-11-03T05:18:09.247Z,32.91
2018-11-03T05:18:47.185Z,32.88
2018-11-03T05:19:25.412Z,32.84
2018-11-03T05:20:03.375Z,32.76
2018-11-03T05:20:42.297Z,32.70
2018-11-03T05:21:20.258Z,32.65
2018-11-03T05:21:58.419Z,32.58
2018-11-03T05:22:36.736Z,32.54
2018-11-03T05:23:14.602Z,32.50
2018-11-03T05:23:52.609Z,32.45
2018-11-03T05:24:30.708Z,32.40
2018-11-03T05:25:08.688Z,32.38
2018-11-03T05:25:46.817Z,32.34
2018-11-03T05:26:25.002Z,32.31
2018-11-03T05:27:03.441Z,32.28
2018-11-03T05:27:41.880Z,32.24
2018-11-03T05:28:19.769Z,32.21
2018-11-03T05:28:57.916Z,32.17
2018-11-03T05:29:35.827Z,32.14
2018-11-03T05:30:14.686Z,32.09
2018-11-03T05:30:52.672Z,32.07
2018-11-03T05:31:30.765Z,32.03
2018-11-03T05:32:09.113Z,32.02
2018-11-03T05:32:47.300Z,32.01
2018-11-03T05:33:25.670Z,31.95
2018-11-03T05:34:03.709Z,31.90
2018-11-03T05:34:41.934Z,31.86
2018-11-03T05:35:19.847Z,31.83
2018-11-03T05:35:57.833Z,31.81
2018-11-03T05:36:35.735Z,31.78
2018-11-03T05:37:13.643Z,31.79
2018-11-03T05:37:51.754Z,31.75
2018-11-03T05:38:29.678Z,31.71
2018-11-03T05:39:12.946Z,31.67
2018-11-03T05:39:50.909Z,31.62
2018-11-03T05:40:28.912Z,31.58
2018-11-03T05:41:07.586Z,31.55
2018-11-03T05:41:45.893Z,31.52
2018-11-03T05:42:25.645Z,31.51
2018-11-03T05:43:03.505Z,31.48
2018-11-03T05:43:42.224Z,31.44
2018-11-03T05:44:20.274Z,31.42
2018-11-03T05:44:58.427Z,31.40
2018-11-03T05:45:36.579Z,31.38
2018-11-03T05:46:14.814Z,31.37
2018-11-03T05:46:52.744Z,31.34
2018-11-03T05:47:30.699Z,31.32
2018-11-03T05:48:08.660Z,31.30
2018-11-03T05:48:46.685Z,31.28
2018-11-03T05:49:24.693Z,31.25
2018-11-03T05:50:02.756Z,31.24
2018-11-03T05:50:40.853Z,31.23
2018-11-03T05:51:18.808Z,31.22
2018-11-03T05:51:56.771Z,31.21
2018-11-03T05:52:34.835Z,31.19
2018-11-03T05:53:12.896Z,31.19
2018-11-03T05:53:50.888Z,31.16
2018-11-03T05:54:28.997Z,31.16
2018-11-03T05:55:07.125Z,31.11
2018-11-03T05:55:45.187Z,31.15
2018-11-03T05:56:23.216Z,31.16
2018-11-03T05:57:01.149Z,31.14
2018-11-03T05:57:39.137Z,31.14
2018-11-03T05:58:17.141Z,31.13
2018-11-03T05:58:55.357Z,31.11
2018-11-03T05:59:33.922Z,31.09
2018-11-03T06:00:12.914Z,31.10
2018-11-03T06:00:50.896Z,31.10
2018-11-03T06:01:28.970Z,31.11
2018-11-03T06:02:07.836Z,31.10
2018-11-03T06:02:46.043Z,31.05
2018-11-03T06:03:24.103Z,31.11
2018-11-03T06:04:02.109Z,31.10
2018-11-03T06:04:40.241Z,31.10
2018-11-03T06:05:20.749Z,31.14
2018-11-03T06:05:58.794Z,31.11
2018-11-03T06:06:36.821Z,31.12
2018-11-03T06:07:14.698Z,31.15
2018-11-03T06:07:52.590Z,31.14
2018-11-03T06:08:30.536Z,31.14
2018-11-03T06:09:10.554Z,31.13
2018-11-03T06:09:49.624Z,31.09
2018-11-03T06:10:27.542Z,31.15
2018-11-03T06:11:05.590Z,31.16
2018-11-03T06:11:43.537Z,31.15
2018-11-03T06:12:21.502Z,31.13
2018-11-03T06:13:00.490Z,31.15
2018-11-03T06:13:38.611Z,31.15
2018-11-03T06:14:16.609Z,31.17
2018-11-03T06:14:55.690Z,31.18
2018-11-03T06:15:33.819Z,31.19
2018-11-03T06:16:11.956Z,31.22
2018-11-03T06:16:49.819Z,31.23
2018-11-03T06:17:27.688Z,31.26
2018-11-03T06:18:05.738Z,31.24
2018-11-03T06:18:43.913Z,31.27
2018-11-03T06:19:21.858Z,31.29
2018-11-03T06:19:59.930Z,31.31
2018-11-03T06:20:37.926Z,31.32
2018-11-03T06:21:15.964Z,31.33
2018-11-03T06:21:53.860Z,31.33
2018-11-03T06:22:31.912Z,31.32
2018-11-03T06:23:10.401Z,31.33
2018-11-03T06:23:48.508Z,31.33
2018-11-03T06:24:26.844Z,31.35
2018-11-03T06:25:04.924Z,31.36
2018-11-03T06:25:42.962Z,31.36
2018-11-03T06:26:21.216Z,31.37
2018-11-03T06:26:59.145Z,31.39
2018-11-03T06:27:38.393Z,31.39
2018-11-03T06:28:16.299Z,31.40
2018-11-03T06:28:54.813Z,31.39
2018-11-03T06:29:32.741Z,31.39
2018-11-03T06:30:12.851Z,31.35
2018-11-03T06:30:51.221Z,31.38
2018-11-03T06:31:29.618Z,31.38
2018-11-03T06:32:07.772Z,31.37
2018-11-03T06:32:45.620Z,31.34
2018-11-03T06:33:23.545Z,31.34
2018-11-03T06:34:02.321Z,31.32
2018-11-03T06:34:40.325Z,31.30
2018-11-03T06:35:18.264Z,31.29
2018-11-03T06:35:56.207Z,31.28
2018-11-03T06:36:34.312Z,31.25
2018-11-03T06:37:12.234Z,31.24
2018-11-03T06:37:50.201Z,31.24
2018-11-03T06:38:28.106Z,31.22
2018-11-03T06:39:06.979Z,31.21
2018-11-03T06:39:45.133Z,31.18
2018-11-03T06:40:23.318Z,31.17
2018-11-03T06:41:01.172Z,31.15
2018-11-03T06:41:40.406Z,31.12
2018-11-03T06:42:18.653Z,31.08
2018-11-03T06:42:56.701Z,31.09
2018-11-03T06:43:34.701Z,31.06
2018-11-03T06:44:12.624Z,31.07
2018-11-03T06:44:50.994Z,31.05
2018-11-03T06:45:28.883Z,31.05
2018-11-03T06:46:06.816Z,31.03
2018-11-03T06:46:44.881Z,31.01
2018-11-03T06:47:22.819Z,31.00
2018-11-03T06:48:01.092Z,30.95
2018-11-03T06:48:39.141Z,30.94
2018-11-03T06:49:22.859Z,30.90
2018-11-03T06:50:00.968Z,30.87
2018-11-03T06:50:40.189Z,30.81
2018-11-03T06:51:18.185Z,30.79
2018-11-03T06:51:56.314Z,30.75
2018-11-03T06:52:34.295Z,30.70
2018-11-03T06:53:12.506Z,30.69
2018-11-03T06:53:50.680Z,30.65
2018-11-03T06:54:28.668Z,30.65
2018-11-03T06:55:06.652Z,30.64
2018-11-03T06:55:45.689Z,30.62
2018-11-03T06:56:23.610Z,30.61
2018-11-03T06:57:01.592Z,30.55
2018-11-03T06:57:39.656Z,30.58
2018-11-03T06:58:18.113Z,30.57
2018-11-03T06:58:56.037Z,30.56
2018-11-03T06:59:34.329Z,30.54
2018-11-03T07:00:13.037Z,30.55
2018-11-03T07:00:52.530Z,30.50
2018-11-03T07:01:30.582Z,30.51
2018-11-03T07:02:08.668Z,30.46
2018-11-03T07:02:46.711Z,30.48
2018-11-03T07:03:24.790Z,30.45
2018-11-03T07:04:02.718Z,30.42
2018-11-03T07:04:40.667Z,30.40
2018-11-03T07:05:18.703Z,30.36
2018-11-03T07:05:56.710Z,30.37
2018-11-03T07:06:34.569Z,30.38
2018-11-03T07:07:12.621Z,30.38
2018-11-03T07:07:50.603Z,30.36
2018-11-03T07:08:28.502Z,30.37
2018-11-03T07:09:07.450Z,30.37
2018-11-03T07:09:45.528Z,30.36
2018-11-03T07:10:23.658Z,30.36
2018-11-03T07:11:01.721Z,30.37
2018-11-03T07:11:40.281Z,30.34
2018-11-03T07:12:18.221Z,30.35
2018-11-03T07:12:56.413Z,30.36
2018-11-03T07:13:34.584Z,30.36
2018-11-03T07:14:12.996Z,30.34
2018-11-03T07:14:51.060Z,30.34
2018-11-03T07:15:29.069Z,30.34
2018-11-03T07:16:06.944Z,30.27
2018-11-03T07:16:44.989Z,30.29
2018-11-03T07:17:23.101Z,30.28
2018-11-03T07:18:00.980Z,30.27
2018-11-03T07:18:39.086Z,30.26
2018-11-03T07:19:17.056Z,30.27
2018-11-03T07:19:55.029Z,30.23
2018-11-03T07:20:33.197Z,30.21
2018-11-03T07:21:11.219Z,30.13
2018-11-03T07:21:49.434Z,30.16
2018-11-03T07:22:27.617Z,30.12
2018-11-03T07:23:05.556Z,30.12
2018-11-03T07:23:43.521Z,30.10
2018-11-03T07:24:21.521Z,30.07
2018-11-03T07:24:59.451Z,30.10
2018-11-03T07:25:37.413Z,30.09
2018-11-03T07:26:15.400Z,30.08
2018-11-03T07:26:53.463Z,30.08
2018-11-03T07:27:31.368Z,30.07
2018-11-03T07:28:09.500Z,30.07
2018-11-03T07:28:47.537Z,30.08
2018-11-03T07:29:25.566Z,30.07
2018-11-03T07:30:04.597Z,30.09
2018-11-03T07:30:42.613Z,30.08
2018-11-03T07:31:20.481Z,30.10
2018-11-03T07:31:58.414Z,30.11
2018-11-03T07:32:36.292Z,30.12
2018-11-03T07:33:14.315Z,30.12
2018-11-03T07:33:52.312Z,30.13
2018-11-03T07:34:30.404Z,30.09
2018-11-03T07:35:08.562Z,30.15
2018-11-03T07:35:46.863Z,30.16
2018-11-03T07:36:25.097Z,30.17
2018-11-03T07:37:04.038Z,30.17
2018-11-03T07:37:42.237Z,30.16
2018-11-03T07:38:21.136Z,30.17
2018-11-03T07:39:00.110Z,30.17
2018-11-03T07:39:38.090Z,30.12
2018-11-03T07:40:16.119Z,30.16
2018-11-03T07:40:54.224Z,30.16
2018-11-03T07:41:32.452Z,30.18
2018-11-03T07:42:12.669Z,30.20
2018-11-03T07:42:50.814Z,30.21
2018-11-03T07:43:28.890Z,30.14
2018-11-03T07:44:07.381Z,30.20
2018-11-03T07:44:45.402Z,30.15
2018-11-03T07:45:24.181Z,30.17
2018-11-03T07:46:02.277Z,30.11
2018-11-03T07:46:40.416Z,30.13
2018-11-03T07:47:18.391Z,30.16
2018-11-03T07:47:56.514Z,30.11
2018-11-03T07:48:34.908Z,30.16
2018-11-03T07:49:17.547Z,30.16
2018-11-03T07:49:55.511Z,30.16
2018-11-03T07:50:33.518Z,30.17
2018-11-03T07:51:12.274Z,30.19
2018-11-03T07:51:51.022Z,30.18
2018-11-03T07:52:28.985Z,30.19
2018-11-03T07:53:06.947Z,30.20
2018-11-03T07:53:45.007Z,30.20
2018-11-03T07:54:23.001Z,30.21
2018-11-03T07:55:01.193Z,30.21
2018-11-03T07:55:39.197Z,30.21
2018-11-03T07:56:17.217Z,30.11
2018-11-03T07:56:56.339Z,30.21
2018-11-03T07:57:34.307Z,30.21
2018-11-03T07:58:12.371Z,30.15
2018-11-03T07:58:50.267Z,30.20
2018-11-03T07:59:28.352Z,30.18
2018-11-03T08:00:06.261Z,30.14
2018-11-03T08:00:45.609Z,30.17
2018-11-03T08:01:23.763Z,30.16
2018-11-03T08:02:01.832Z,30.12
2018-11-03T08:02:39.805Z,30.16
2018-11-03T08:03:17.861Z,30.17
2018-11-03T08:03:55.810Z,30.08
2018-11-03T08:04:33.854Z,30.16
2018-11-03T08:05:13.482Z,30.14
2018-11-03T08:05:51.613Z,30.10
2018-11-03T08:06:29.630Z,30.11
2018-11-03T08:07:07.663Z,30.13
2018-11-03T08:07:46.504Z,30.14
2018-11-03T08:08:24.692Z,30.13
2018-11-03T08:09:02.728Z,30.13
2018-11-03T08:09:41.062Z,30.14
2018-11-03T08:10:19.014Z,30.13
2018-11-03T08:10:56.950Z,30.13
2018-11-03T08:11:34.994Z,30.13
2018-11-03T08:12:13.526Z,30.08
2018-11-03T08:12:51.648Z,30.12
2018-11-03T08:13:29.697Z,30.11
2018-11-03T08:14:07.598Z,30.10
2018-11-03T08:14:45.592Z,30.10
2018-11-03T08:15:23.658Z,30.10
2018-11-03T08:16:01.594Z,30.09
2018-11-03T08:16:39.577Z,30.08
2018-11-03T08:17:17.663Z,30.07
2018-11-03T08:17:56.166Z,30.08
2018-11-03T08:18:34.454Z,30.08
2018-11-03T08:19:12.510Z,30.08
2018-11-03T08:19:50.425Z,30.10
2018-11-03T08:20:28.388Z,30.09
2018-11-03T08:21:06.523Z,30.05
2018-11-03T08:21:44.457Z,30.07
2018-11-03T08:22:22.529Z,30.07
2018-11-03T08:23:00.640Z,30.07
2018-11-03T08:23:38.795Z,30.06
2018-11-03T08:24:16.632Z,30.07
2018-11-03T08:24:54.528Z,30.05
2018-11-03T08:25:32.472Z,30.08
2018-11-03T08:26:10.453Z,30.09
2018-11-03T08:26:48.482Z,30.05
2018-11-03T08:27:26.391Z,30.09
2018-11-03T08:28:04.229Z,30.08
2018-11-03T08:28:42.336Z,30.10
2018-11-03T08:29:20.434Z,30.08
2018-11-03T08:29:58.441Z,30.09
2018-11-03T08:30:36.364Z,30.08
2018-11-03T08:31:14.743Z,30.11
2018-11-03T08:31:52.928Z,30.11
2018-11-03T08:32:30.893Z,30.12
2018-11-03T08:33:08.857Z,30.12
2018-11-03T08:33:46.824Z,30.14
2018-11-03T08:34:24.725Z,30.13
2018-11-03T08:35:02.607Z,30.14
2018-11-03T08:35:41.488Z,30.15
2018-11-03T08:36:20.505Z,30.18
2018-11-03T08:36:58.417Z,30.18
2018-11-03T08:37:36.373Z,30.17
2018-11-03T08:38:14.748Z,30.13
2018-11-03T08:38:53.140Z,30.18
2018-11-03T08:39:32.484Z,30.17
2018-11-03T08:40:13.653Z,30.18
2018-11-03T08:40:51.939Z,30.16
2018-11-03T08:41:29.855Z,30.13
2018-11-03T08:42:08.143Z,30.12
2018-11-03T08:42:46.080Z,30.12
2018-11-03T08:43:24.247Z,30.13
2018-11-03T08:44:02.290Z,30.12
2018-11-03T08:44:40.258Z,30.13
2018-11-03T08:45:18.159Z,30.10
2018-11-03T08:45:56.321Z,30.12
2018-11-03T08:46:34.406Z,30.12
2018-11-03T08:47:12.554Z,30.12
2018-11-03T08:47:50.573Z,30.11
2018-11-03T08:48:28.854Z,30.11
2018-11-03T08:49:06.924Z,30.12
2018-11-03T08:49:44.947Z,30.12
2018-11-03T08:50:22.816Z,30.13
2018-11-03T08:51:01.923Z,30.14
2018-11-03T08:51:39.971Z,30.15
2018-11-03T08:52:18.265Z,30.16
2018-11-03T08:52:56.065Z,30.14
2018-11-03T08:53:34.027Z,30.15
2018-11-03T08:54:11.952Z,30.13
2018-11-03T08:54:49.988Z,30.10
2018-11-03T08:55:28.141Z,30.12
2018-11-03T08:56:06.097Z,30.14
2018-11-03T08:56:44.065Z,30.12
2018-11-03T08:57:22.034Z,30.11
2018-11-03T08:57:59.994Z,30.08
2018-11-03T08:58:37.875Z,30.12
2018-11-03T08:59:16.010Z,30.12
2018-11-03T08:59:54.147Z,30.09
2018-11-03T09:00:33.008Z,30.12
2018-11-03T09:01:10.919Z,30.13
2018-11-03T09:01:48.983Z,30.11
2018-11-03T09:02:27.042Z,30.12
2018-11-03T09:03:05.032Z,30.12
2018-11-03T09:03:42.877Z,30.08
2018-11-03T09:04:20.876Z,30.12
2018-11-03T09:04:58.868Z,30.09
2018-11-03T09:05:37.521Z,30.13
2018-11-03T09:06:15.457Z,30.16
2018-11-03T09:06:53.419Z,30.12
2018-11-03T09:07:31.303Z,30.16
2018-11-03T09:08:09.320Z,30.12
2018-11-03T09:08:47.375Z,30.18
2018-11-03T09:09:25.364Z,30.20
2018-11-03T09:10:03.390Z,30.21
2018-11-03T09:10:42.204Z,30.21
2018-11-03T09:11:20.202Z,30.22
2018-11-03T09:11:58.070Z,30.22
2018-11-03T09:12:36.879Z,30.24
2018-11-03T09:13:15.020Z,30.25
2018-11-03T09:13:52.985Z,30.23
2018-11-03T09:14:31.133Z,30.24
2018-11-03T09:15:11.022Z,30.23
2018-11-03T09:15:49.929Z,30.24
2018-11-03T09:16:27.966Z,30.26
2018-11-03T09:17:05.934Z,30.25
2018-11-03T09:17:44.843Z,30.26
2018-11-03T09:18:22.851Z,30.26
2018-11-03T09:19:02.526Z,30.24
2018-11-03T09:19:40.580Z,30.25
2018-11-03T09:20:18.539Z,30.25
2018-11-03T09:20:56.528Z,30.22
2018-11-03T09:21:34.574Z,30.22
2018-11-03T09:22:12.567Z,30.26
2018-11-03T09:22:50.605Z,30.26
2018-11-03T09:23:28.572Z,30.27
2018-11-03T09:24:06.785Z,30.26
2018-11-03T09:24:44.700Z,30.27
2018-11-03T09:25:22.789Z,30.28
2018-11-03T09:26:00.856Z,30.28
2018-11-03T09:26:38.837Z,30.28
2018-11-03T09:27:16.793Z,30.28
2018-11-03T09:27:54.669Z,30.29
2018-11-03T09:28:32.748Z,30.29
2018-11-03T09:29:11.482Z,30.29
2018-11-03T09:29:49.460Z,30.25
2018-11-03T09:30:27.465Z,30.28
2018-11-03T09:31:05.444Z,30.28
2018-11-03T09:31:43.573Z,30.28
2018-11-03T09:32:21.594Z,30.29
2018-11-03T09:32:59.730Z,30.27
2018-11-03T09:33:37.715Z,30.27
2018-11-03T09:34:15.720Z,30.23
2018-11-03T09:34:54.111Z,30.25
2018-11-03T09:35:32.131Z,30.17
2018-11-03T09:36:10.538Z,30.21
2018-11-03T09:36:48.384Z,30.20
2018-11-03T09:37:26.428Z,30.14
2018-11-03T09:38:04.526Z,30.14
2018-11-03T09:38:42.463Z,30.13
2018-11-03T09:39:20.437Z,30.13
2018-11-03T09:39:58.480Z,30.12
2018-11-03T09:40:36.397Z,30.11
2018-11-03T09:41:14.352Z,30.09
2018-11-03T09:41:52.368Z,30.09
2018-11-03T09:42:30.520Z,30.08
2018-11-03T09:43:09.197Z,30.09
2018-11-03T09:43:47.275Z,30.10
2018-11-03T09:44:25.539Z,30.07
2018-11-03T09:45:03.654Z,30.09
2018-11-03T09:45:41.730Z,30.09
2018-11-03T09:46:19.814Z,30.08
2018-11-03T09:46:57.699Z,30.05
2018-11-03T09:47:35.663Z,30.07
2018-11-03T09:48:14.766Z,30.06
2018-11-03T09:48:52.755Z,30.07
2018-11-03T09:49:30.828Z,30.02
2018-11-03T09:50:09.216Z,30.05
2018-11-03T09:50:47.278Z,30.06
2018-11-03T09:51:25.336Z,30.05
2018-11-03T09:52:03.323Z,30.00
2018-11-03T09:52:41.743Z,30.05
2018-11-03T09:53:19.740Z,30.02
2018-11-03T09:53:57.649Z,30.04
2018-11-03T09:54:35.660Z,30.02
2018-11-03T09:55:17.111Z,30.00
2018-11-03T09:55:54.971Z,29.94
2018-11-03T09:56:32.917Z,29.97
2018-11-03T09:57:12.093Z,29.98
2018-11-03T09:57:50.213Z,29.99
2018-11-03T09:58:28.230Z,29.98
2018-11-03T09:59:06.231Z,29.98
2018-11-03T09:59:44.253Z,29.97
2018-11-03T10:00:23.326Z,29.95
2018-11-03T10:01:01.342Z,29.97
2018-11-03T10:01:39.299Z,29.96
2018-11-03T10:02:17.454Z,29.97
2018-11-03T10:02:55.438Z,29.96
2018-11-03T10:03:33.682Z,29.95
2018-11-03T10:04:11.662Z,29.96
2018-11-03T10:04:49.676Z,29.95
2018-11-03T10:05:27.805Z,29.94
2018-11-03T10:06:05.802Z,29.92
2018-11-03T10:06:43.916Z,29.92
2018-11-03T10:07:22.020Z,29.88
2018-11-03T10:08:02.220Z,29.86
2018-11-03T10:08:40.279Z,29.85
2018-11-03T10:09:18.072Z,29.87
2018-11-03T10:09:56.161Z,29.85
2018-11-03T10:10:34.069Z,29.84
2018-11-03T10:11:11.996Z,29.84
2018-11-03T10:11:50.008Z,29.83
2018-11-03T10:12:28.981Z,29.81
2018-11-03T10:13:07.141Z,29.77
2018-11-03T10:13:44.998Z,29.78
2018-11-03T10:14:23.182Z,29.78
2018-11-03T10:15:01.071Z,29.78
2018-11-03T10:15:39.188Z,29.76
2018-11-03T10:16:17.037Z,29.76
2018-11-03T10:16:55.202Z,29.76
2018-11-03T10:17:33.234Z,29.71
2018-11-03T10:18:11.269Z,29.75
2018-11-03T10:18:49.275Z,29.75
2018-11-03T10:19:27.420Z,29.75
2018-11-03T10:20:05.408Z,29.74
2018-11-03T10:20:45.325Z,29.71
2018-11-03T10:21:23.199Z,29.71
2018-11-03T10:22:01.129Z,29.68
2018-11-03T10:22:39.376Z,29.64
2018-11-03T10:23:18.536Z,29.66
2018-11-03T10:23:56.553Z,29.65
2018-11-03T10:24:34.686Z,29.64
2018-11-03T10:25:16.747Z,29.64
2018-11-03T10:25:54.715Z,29.64
2018-11-03T10:26:32.712Z,29.63
2018-11-03T10:27:10.751Z,29.63
2018-11-03T10:27:49.371Z,29.63
2018-11-03T10:28:27.279Z,29.62
2018-11-03T10:29:05.201Z,29.63
2018-11-03T10:29:43.175Z,29.61
2018-11-03T10:30:21.296Z,29.61
2018-11-03T10:30:59.989Z,29.61
2018-11-03T10:31:38.468Z,29.58
2018-11-03T10:32:16.425Z,29.62
2018-11-03T10:32:54.508Z,29.61
2018-11-03T10:33:32.709Z,29.62
2018-11-03T10:34:11.648Z,29.56
2018-11-03T10:34:49.642Z,29.61
2018-11-03T10:35:27.705Z,29.60
2018-11-03T10:36:05.698Z,29.55
2018-11-03T10:36:43.737Z,29.60
2018-11-03T10:37:21.702Z,29.60
2018-11-03T10:38:00.592Z,29.61
2018-11-03T10:38:38.548Z,29.61
2018-11-03T10:39:16.693Z,29.62
2018-11-03T10:39:54.523Z,29.62
2018-11-03T10:40:32.769Z,29.61
2018-11-03T10:41:11.725Z,29.61
2018-11-03T10:41:49.725Z,29.62
2018-11-03T10:42:27.755Z,29.61
2018-11-03T10:43:05.725Z,29.62
2018-11-03T10:43:43.542Z,29.63
2018-11-03T10:44:21.488Z,29.62
2018-11-03T10:44:59.404Z,29.62
2018-11-03T10:45:38.001Z,29.62
2018-11-03T10:46:16.227Z,29.63
2018-11-03T10:46:54.220Z,29.57
2018-11-03T10:47:32.392Z,29.61
2018-11-03T10:48:10.637Z,29.62
2018-11-03T10:48:48.520Z,29.61
2018-11-03T10:49:26.452Z,29.61
2018-11-03T10:50:04.303Z,29.56
2018-11-03T10:50:42.425Z,29.60
2018-11-03T10:51:20.388Z,29.58
2018-11-03T10:51:58.441Z,29.57
2018-11-03T10:52:36.415Z,29.56
2018-11-03T10:53:15.292Z,29.53
2018-11-03T10:53:53.261Z,29.53
2018-11-03T10:54:31.196Z,29.52
2018-11-03T10:55:09.888Z,29.52
2018-11-03T10:55:47.873Z,29.51
2018-11-03T10:56:25.861Z,29.51
2018-11-03T10:57:03.903Z,29.51
2018-11-03T10:57:43.050Z,29.49
2018-11-03T10:58:20.948Z,29.48
2018-11-03T10:58:58.841Z,29.50
2018-11-03T10:59:37.088Z,29.49
2018-11-03T11:00:23.527Z,29.50
2018-11-03T11:01:06.029Z,29.49
2018-11-03T11:01:48.066Z,29.49
2018-11-03T11:02:30.420Z,29.48
2018-11-03T11:03:12.509Z,29.48
2018-11-03T11:03:54.665Z,29.48
2018-11-03T11:04:36.943Z,29.48
2018-11-03T11:05:20.041Z,29.48
2018-11-03T11:06:02.025Z,29.48
2018-11-03T11:06:44.176Z,29.47
2018-11-03T11:07:26.252Z,29.44
2018-11-03T11:08:09.594Z,29.48
2018-11-03T11:08:51.664Z,29.48
2018-11-03T11:09:37.122Z,29.47
2018-11-03T11:10:19.040Z,29.48
2018-11-03T11:11:01.063Z,29.46
2018-11-03T11:11:43.084Z,29.45
2018-11-03T11:13:25.606Z,29.43
2018-11-03T11:14:03.700Z,29.43
2018-11-03T11:14:41.924Z,29.43
2018-11-03T11:15:19.960Z,29.41
2018-11-03T11:15:59.567Z,29.41
2018-11-03T11:16:37.742Z,29.41
2018-11-03T11:17:15.740Z,29.38
2018-11-03T11:17:54.338Z,29.37
2018-11-03T11:18:32.205Z,29.36
2018-11-03T11:19:10.079Z,29.34
2018-11-03T11:19:48.034Z,29.34
2018-11-03T11:20:25.972Z,29.34
2018-11-03T11:21:03.864Z,29.35
2018-11-03T11:21:41.849Z,29.34
2018-11-03T11:22:20.969Z,29.34
2018-11-03T11:22:59.903Z,29.34
2018-11-03T11:23:37.854Z,29.35
2018-11-03T11:24:16.280Z,29.36
2018-11-03T11:24:55.119Z,29.36
2018-11-03T11:25:33.136Z,29.35
2018-11-03T11:26:11.192Z,29.37
2018-11-03T11:26:49.077Z,29.35
2018-11-03T11:27:27.133Z,29.35
2018-11-03T11:28:05.180Z,29.36
2018-11-03T11:28:43.145Z,29.35
2018-11-03T11:29:21.124Z,29.35
2018-11-03T11:29:59.245Z,29.35
2018-11-03T11:30:38.626Z,29.34
2018-11-03T11:31:16.508Z,29.33
2018-11-03T11:31:54.561Z,29.34
2018-11-03T11:32:32.558Z,29.33
2018-11-03T11:33:12.949Z,29.32
2018-11-03T11:33:51.036Z,29.31
2018-11-03T11:34:28.982Z,29.31
2018-11-03T11:35:06.859Z,29.30
2018-11-03T11:35:44.981Z,29.30
2018-11-03T11:36:23.126Z,29.29
2018-11-03T11:37:01.049Z,29.29
2018-11-03T11:37:39.525Z,29.28
2018-11-03T11:38:18.000Z,29.29
2018-11-03T11:38:56.843Z,29.28